createdAt,value
2023-03-07T00:01:24.267Z,99162.63
2023-03-07T00:03:50.692Z,99168.47
2023-03-07T00:06:17.098Z,99157.88
2023-03-07T00:08:43.498Z,99161.44
2023-03-07T00:11:09.917Z,99163.34
2023-03-07T00:13:37.946Z,99156.31
2023-03-07T00:16:11.273Z,99152.34
2023-03-07T00:18:37.863Z,99149.44
2023-03-07T00:21:07.137Z,99154.66
2023-03-07T00:23:34.234Z,99151.94
2023-03-07T00:26:06.212Z,99140.84
2023-03-07T00:28:32.879Z,99144.66
2023-03-07T00:31:03.968Z,99130.63
2023-03-07T00:33:31.024Z,99140.03
2023-03-07T00:36:01.948Z,99130.31
2023-03-07T00:38:30.383Z,99136.97
2023-03-07T00:41:26.527Z,99133.88
2023-03-07T00:43:54.213Z,99130.31
2023-03-07T00:46:22.358Z,99130.25
2023-03-07T00:48:49.223Z,99133.41
2023-03-07T00:51:16.981Z,99135.97
2023-03-07T00:53:43.438Z,99124.47
2023-03-07T00:56:23.745Z,99117.56
2023-03-07T00:58:50.860Z,99124.53
2023-03-07T01:01:20.134Z,99133.56
2023-03-07T01:03:49.545Z,99123.72
2023-03-07T01:06:17.733Z,99118.63
2023-03-07T01:08:44.401Z,99128.88
2023-03-07T01:11:11.300Z,99121.34
2023-03-07T01:13:38.203Z,99118.59
2023-03-07T01:16:19.945Z,99127.16
2023-03-07T01:18:50.318Z,99113.28
2023-03-07T01:21:21.378Z,99116.56
2023-03-07T01:23:47.894Z,99123.88
2023-03-07T01:26:19.859Z,99114.75
2023-03-07T01:28:46.668Z,99110.34
2023-03-07T01:31:13.563Z,99112.91
2023-03-07T01:33:40.496Z,99109.16
2023-03-07T01:36:16.036Z,99113.41
2023-03-07T01:38:42.528Z,99107.25
2023-03-07T01:41:09.460Z,99102.13
2023-03-07T01:43:36.224Z,99105.47
2023-03-07T01:46:17.962Z,99098.59
2023-03-07T01:48:50.880Z,99093.34
2023-03-07T01:51:17.701Z,99086.13
2023-03-07T01:53:44.786Z,99092.50
2023-03-07T01:56:11.575Z,99091.34
2023-03-07T01:58:38.844Z,99082.81
2023-03-07T02:01:08.292Z,99091.47
2023-03-07T02:03:41.746Z,99081.50
2023-03-07T02:06:10.334Z,99080.34
2023-03-07T02:08:37.499Z,99072.47
2023-03-07T02:11:04.723Z,99074.13
2023-03-07T02:13:31.133Z,99060.56
2023-03-07T02:16:00.162Z,99060.25
2023-03-07T02:18:29.561Z,99061.38
2023-03-07T02:21:04.997Z,99053.22
2023-03-07T02:23:56.246Z,99042.66
2023-03-07T02:26:26.671Z,99046.31
2023-03-07T02:28:54.637Z,99042.34
2023-03-07T02:31:21.220Z,99041.09
2023-03-07T02:33:47.617Z,99037.56
2023-03-07T02:36:23.547Z,99033.63
2023-03-07T02:38:51.685Z,99035.53
2023-03-07T02:41:21.306Z,99028.78
2023-03-07T02:43:47.799Z,99024.63
2023-03-07T02:46:14.224Z,99033.63
2023-03-07T02:48:40.654Z,99035.44
2023-03-07T02:51:07.269Z,99016.97
2023-03-07T02:53:33.703Z,99022.41
2023-03-07T02:56:00.110Z,99025.63
2023-03-07T02:58:26.492Z,99022.97
2023-03-07T03:00:52.865Z,99022.41
2023-03-07T03:03:19.559Z,99021.88
2023-03-07T03:05:45.953Z,99020.31
2023-03-07T03:08:12.713Z,99013.16
2023-03-07T03:10:39.398Z,99000.94
2023-03-07T03:13:05.814Z,99015.41
2023-03-07T03:15:32.197Z,99004.06
2023-03-07T03:17:58.680Z,99002.63
2023-03-07T03:20:25.786Z,99004.81
2023-03-07T03:22:52.934Z,99004.97
2023-03-07T03:25:22.430Z,98996.94
2023-03-07T03:27:48.962Z,98997.28
2023-03-07T03:30:15.837Z,99001.63
2023-03-07T03:32:43.621Z,99003.16
2023-03-07T03:35:10.500Z,98993.06
2023-03-07T03:37:36.886Z,98990.34
2023-03-07T03:40:06.650Z,98995.94
2023-03-07T03:42:33.071Z,98996.47
2023-03-07T03:44:59.484Z,98992.03
2023-03-07T03:47:25.862Z,98993.38
2023-03-07T03:49:52.248Z,98988.50
2023-03-07T03:52:18.696Z,98982.56
2023-03-07T03:54:45.160Z,98984.50
2023-03-07T03:57:15.749Z,98979.03
2023-03-07T03:59:42.140Z,98981.25
2023-03-07T04:02:08.638Z,98981.69
2023-03-07T04:04:35.926Z,98970.78
2023-03-07T04:07:02.308Z,98979.81
2023-03-07T04:09:28.707Z,98978.81
2023-03-07T04:11:55.075Z,98968.91
2023-03-07T04:14:21.505Z,98975.56
2023-03-07T04:16:47.956Z,98972.13
2023-03-07T04:19:14.398Z,98968.78
2023-03-07T04:21:41.082Z,98969.78
2023-03-07T04:24:08.422Z,98973.00
2023-03-07T04:26:35.768Z,98968.09
2023-03-07T04:29:02.742Z,98961.34
2023-03-07T04:31:29.270Z,98966.69
2023-03-07T04:33:56.477Z,98960.13
2023-03-07T04:36:23.783Z,98967.56
2023-03-07T04:38:50.269Z,98965.78
2023-03-07T04:41:19.821Z,98970.31
2023-03-07T04:43:46.747Z,98964.47
2023-03-07T04:46:14.511Z,98957.09
2023-03-07T04:48:41.142Z,98966.75
2023-03-07T04:51:07.563Z,98963.06
2023-03-07T04:53:33.959Z,98958.88
2023-03-07T04:56:02.569Z,98960.91
2023-03-07T04:58:29.639Z,98944.44
2023-03-07T05:00:56.938Z,98953.53
2023-03-07T05:03:24.630Z,98956.53
2023-03-07T05:05:51.223Z,98954.41
2023-03-07T05:08:18.083Z,98939.53
2023-03-07T05:10:45.070Z,98939.88
2023-03-07T05:13:11.747Z,98936.28
2023-03-07T05:15:38.211Z,98939.31
2023-03-07T05:18:04.678Z,98939.44
2023-03-07T05:20:31.152Z,98937.75
2023-03-07T05:22:57.612Z,98937.09
2023-03-07T05:25:24.036Z,98928.63
2023-03-07T05:27:50.520Z,98933.31
2023-03-07T05:30:17.331Z,98928.75
2023-03-07T05:32:43.793Z,98929.06
2023-03-07T05:35:11.272Z,98928.41
2023-03-07T05:37:37.810Z,98923.06
2023-03-07T05:40:09.807Z,98925.28
2023-03-07T05:42:36.744Z,98922.63
2023-03-07T05:45:04.469Z,98923.94
2023-03-07T05:47:30.849Z,98923.06
2023-03-07T05:49:57.250Z,98919.75
2023-03-07T05:52:23.696Z,98924.50
2023-03-07T05:54:51.413Z,98919.28
2023-03-07T05:57:17.869Z,98916.97
2023-03-07T05:59:44.289Z,98915.72
2023-03-07T06:02:10.695Z,98915.50
2023-03-07T06:04:37.094Z,98911.94
2023-03-07T06:07:03.473Z,98910.38
2023-03-07T06:09:31.036Z,98905.69
2023-03-07T06:11:57.406Z,98900.56
2023-03-07T06:14:24.148Z,98898.72
2023-03-07T06:16:50.558Z,98899.91
2023-03-07T06:19:16.965Z,98896.38
2023-03-07T06:21:44.244Z,98900.72
2023-03-07T06:24:10.612Z,98901.47
2023-03-07T06:26:37.005Z,98890.03
2023-03-07T06:29:03.469Z,98895.38
2023-03-07T06:31:29.968Z,98897.91
2023-03-07T06:33:57.635Z,98888.13
2023-03-07T06:36:24.180Z,98891.91
2023-03-07T06:38:50.568Z,98896.16
2023-03-07T06:41:17.254Z,98900.72
2023-03-07T06:43:43.623Z,98894.16
2023-03-07T06:46:10.107Z,98890.47
2023-03-07T06:48:37.016Z,98887.50
2023-03-07T06:51:07.780Z,98885.47
2023-03-07T06:53:34.266Z,98888.34
2023-03-07T06:56:00.649Z,98893.03
2023-03-07T06:58:27.980Z,98887.91
2023-03-07T07:00:54.369Z,98890.03
2023-03-07T07:03:21.345Z,98880.56
2023-03-07T07:05:47.895Z,98890.78
2023-03-07T07:08:14.343Z,98886.69
2023-03-07T07:10:40.766Z,98879.91
2023-03-07T07:13:07.254Z,98875.66
2023-03-07T07:15:33.835Z,98874.22
2023-03-07T07:18:00.228Z,98885.47
2023-03-07T07:20:26.615Z,98877.91
2023-03-07T07:22:53.035Z,98871.66
2023-03-07T07:25:19.434Z,98883.47
2023-03-07T07:27:45.850Z,98871.44
2023-03-07T07:30:13.750Z,98884.34
2023-03-07T07:32:40.656Z,98882.56
2023-03-07T07:35:07.484Z,98884.34
2023-03-07T07:37:33.876Z,98878.66
2023-03-07T07:40:00.264Z,98886.78
2023-03-07T07:42:26.690Z,98885.03
2023-03-07T07:44:53.079Z,98891.59
2023-03-07T07:47:19.510Z,98887.00
2023-03-07T07:49:45.890Z,98887.25
2023-03-07T07:52:12.317Z,98893.66
2023-03-07T07:54:38.697Z,98885.56
2023-03-07T07:57:05.178Z,98886.91
2023-03-07T07:59:34.050Z,98885.31
2023-03-07T08:02:01.541Z,98888.22
2023-03-07T08:04:28.084Z,98888.53
2023-03-07T08:06:54.616Z,98882.81
2023-03-07T08:09:21.046Z,98885.69
2023-03-07T08:11:48.384Z,98888.81
2023-03-07T08:14:14.763Z,98892.38
2023-03-07T08:16:41.161Z,98899.28
2023-03-07T08:19:07.543Z,98899.13
2023-03-07T08:21:33.929Z,98904.50
2023-03-07T08:24:00.307Z,98901.63
2023-03-07T08:26:26.730Z,98908.03
2023-03-07T08:28:53.178Z,98915.59
2023-03-07T08:31:25.657Z,98917.28
2023-03-07T08:33:52.622Z,98924.28
2023-03-07T08:36:19.132Z,98920.41
2023-03-07T08:38:50.729Z,98923.97
2023-03-07T08:41:18.066Z,98928.00
2023-03-07T08:43:44.575Z,98932.31
2023-03-07T08:46:11.032Z,98931.63
2023-03-07T08:48:37.471Z,98937.59
2023-03-07T08:51:07.994Z,98928.72
2023-03-07T08:53:34.485Z,98933.72
2023-03-07T08:56:01.066Z,98937.06
2023-03-07T08:58:27.464Z,98922.19
2023-03-07T09:00:53.831Z,98927.53
2023-03-07T09:03:20.232Z,98929.16
2023-03-07T09:05:46.614Z,98926.44
2023-03-07T09:08:13.506Z,98928.56
2023-03-07T09:10:39.956Z,98931.56
2023-03-07T09:13:06.620Z,98938.63
2023-03-07T09:15:32.987Z,98943.44
2023-03-07T09:17:59.426Z,98939.66
2023-03-07T09:20:25.832Z,98943.41
2023-03-07T09:22:54.090Z,98953.47
2023-03-07T09:25:20.541Z,98952.41
2023-03-07T09:27:47.144Z,98961.06
2023-03-07T09:30:14.676Z,98969.75
2023-03-07T09:32:41.337Z,98975.31
2023-03-07T09:35:08.227Z,98977.00
2023-03-07T09:37:34.818Z,98968.63
2023-03-07T09:40:01.419Z,98975.84
2023-03-07T09:42:42.034Z,98976.44
2023-03-07T09:45:21.576Z,98988.34
2023-03-07T09:47:58.758Z,98981.56
2023-03-07T09:50:34.056Z,98977.22
2023-03-07T09:53:03.799Z,98981.69
2023-03-07T09:55:31.840Z,98964.66
2023-03-07T09:58:07.839Z,98964.22
2023-03-07T10:00:37.961Z,98967.53
2023-03-07T10:03:13.417Z,98973.44
2023-03-07T10:05:45.494Z,98968.69
2023-03-07T10:08:15.798Z,98968.38
2023-03-07T10:11:06.609Z,98971.44
2023-03-07T10:13:36.752Z,98978.56
2023-03-07T10:16:27.585Z,98970.25
2023-03-07T10:18:57.085Z,98970.72
2023-03-07T10:21:29.306Z,98975.97
2023-03-07T10:24:25.069Z,98976.41
2023-03-07T10:27:02.021Z,98973.06
2023-03-07T10:29:34.766Z,98971.25
2023-03-07T10:32:12.889Z,98967.53
2023-03-07T10:34:39.819Z,98976.28
2023-03-07T10:37:09.608Z,98973.63
2023-03-07T10:39:52.234Z,98972.56
2023-03-07T10:42:21.512Z,98968.34
2023-03-07T10:44:49.870Z,98973.91
2023-03-07T10:47:25.071Z,98967.28
2023-03-07T10:49:55.128Z,98969.63
2023-03-07T10:52:29.610Z,98981.19
2023-03-07T10:55:32.053Z,98979.00
2023-03-07T10:58:24.073Z,98976.03
2023-03-07T11:00:59.825Z,98975.09
2023-03-07T11:03:46.020Z,98986.09
2023-03-07T11:06:26.175Z,98986.66
2023-03-07T11:08:52.661Z,98990.63
2023-03-07T11:11:24.557Z,98995.91
2023-03-07T11:14:14.516Z,98998.19
2023-03-07T11:17:17.278Z,98982.66
2023-03-07T11:19:45.209Z,98982.34
2023-03-07T11:22:36.508Z,98976.88
2023-03-07T11:25:25.699Z,98982.84
2023-03-07T11:27:57.054Z,98985.59
2023-03-07T11:30:49.501Z,98981.88
2023-03-07T11:33:20.125Z,98986.91
2023-03-07T11:36:05.461Z,98983.38
2023-03-07T11:38:39.781Z,98983.59
2023-03-07T11:41:18.461Z,98989.44
2023-03-07T11:43:57.672Z,99001.06
2023-03-07T11:46:27.068Z,99004.03
2023-03-07T11:49:21.894Z,98996.06
2023-03-07T11:52:25.965Z,98999.38
2023-03-07T11:55:24.123Z,98992.22
2023-03-07T11:58:20.956Z,98997.84
2023-03-07T12:00:56.435Z,99003.63
2023-03-07T12:04:03.350Z,98997.06
2023-03-07T12:06:44.646Z,98996.28
2023-03-07T12:09:48.776Z,99006.84
2023-03-07T12:12:22.109Z,99008.81
2023-03-07T12:15:01.168Z,99006.22
2023-03-07T12:17:48.936Z,99012.13
2023-03-07T12:20:26.051Z,99013.88
2023-03-07T12:23:09.937Z,99008.63
2023-03-07T12:25:51.670Z,99008.47
2023-03-07T12:28:29.019Z,99011.38
2023-03-07T12:30:59.020Z,99003.28
2023-03-07T12:33:46.950Z,99002.75
2023-03-07T12:36:32.135Z,99000.28
2023-03-07T12:39:07.829Z,99002.97
2023-03-07T12:41:40.608Z,99001.19
2023-03-07T12:44:12.751Z,99007.22
2023-03-07T12:46:44.685Z,98999.66
2023-03-07T12:49:16.799Z,99005.47
2023-03-07T12:51:47.995Z,98999.31
2023-03-07T12:54:26.213Z,98991.78
2023-03-07T12:57:02.596Z,98995.72
2023-03-07T12:59:29.854Z,98992.63
2023-03-07T13:02:00.174Z,98983.19
2023-03-07T13:04:36.271Z,98982.28
2023-03-07T13:07:26.153Z,98986.03
2023-03-07T13:09:58.416Z,98983.91
2023-03-07T13:12:25.421Z,98993.16
2023-03-07T13:15:04.809Z,98996.78
2023-03-07T13:17:31.281Z,98990.97
2023-03-07T13:20:19.652Z,98993.47
2023-03-07T13:22:45.927Z,98989.31
2023-03-07T13:25:27.933Z,98992.28
2023-03-07T13:27:59.177Z,98996.78
2023-03-07T13:30:32.722Z,98989.19
2023-03-07T13:33:03.363Z,98985.88
2023-03-07T13:35:35.805Z,98986.09
2023-03-07T13:38:14.953Z,98985.06
2023-03-07T13:40:42.234Z,98982.75
2023-03-07T13:43:25.604Z,98983.19
2023-03-07T13:45:59.936Z,98988.09
2023-03-07T13:48:32.228Z,98986.09
2023-03-07T13:51:01.674Z,98984.25
2023-03-07T13:53:28.051Z,98985.28
2023-03-07T13:56:02.243Z,98986.22
2023-03-07T13:58:33.735Z,98980.97
2023-03-07T14:01:04.110Z,98973.09
2023-03-07T14:03:37.783Z,98983.41
2023-03-07T14:06:10.707Z,98977.59
2023-03-07T14:08:37.222Z,98986.41
2023-03-07T14:11:04.760Z,98979.06
2023-03-07T14:13:52.973Z,98983.44
2023-03-07T14:16:51.334Z,98984.34
2023-03-07T14:19:29.761Z,98993.53
2023-03-07T14:22:13.162Z,98989.47
2023-03-07T14:24:49.436Z,98983.31
2023-03-07T14:27:16.672Z,98992.25
2023-03-07T14:29:51.874Z,98990.88
2023-03-07T14:32:30.644Z,98995.22
2023-03-07T14:34:58.077Z,99000.50
2023-03-07T14:37:29.633Z,98998.94
2023-03-07T14:39:59.010Z,98994.84
2023-03-07T14:42:33.818Z,99001.97
2023-03-07T14:45:11.825Z,98999.31
2023-03-07T14:47:44.440Z,98995.00
2023-03-07T14:50:20.860Z,99001.97
2023-03-07T14:52:48.050Z,98994.38
2023-03-07T14:55:19.072Z,98989.41
2023-03-07T14:57:49.421Z,98987.06
2023-03-07T15:00:28.814Z,98992.94
2023-03-07T15:02:58.252Z,98997.00
2023-03-07T15:05:36.070Z,98994.78
2023-03-07T15:08:02.508Z,98997.38
2023-03-07T15:10:41.410Z,98992.72
2023-03-07T15:13:14.874Z,98988.81
2023-03-07T15:15:45.597Z,98988.81
2023-03-07T15:18:20.348Z,98992.78
2023-03-07T15:20:47.620Z,98998.16
2023-03-07T15:23:22.443Z,99003.06
2023-03-07T15:25:49.446Z,98995.00
2023-03-07T15:28:18.715Z,98997.19
2023-03-07T15:30:52.179Z,98993.94
2023-03-07T15:33:19.447Z,98998.59
2023-03-07T15:35:47.841Z,98999.03
2023-03-07T15:38:15.606Z,98999.31
2023-03-07T15:40:42.080Z,98997.69
2023-03-07T15:43:25.552Z,99000.13
2023-03-07T15:46:27.442Z,99005.63
2023-03-07T15:48:54.110Z,98999.72
2023-03-07T15:51:25.223Z,98999.09
2023-03-07T15:54:04.369Z,99003.72
2023-03-07T15:56:41.267Z,99006.78
2023-03-07T15:59:22.817Z,99010.03
2023-03-07T16:01:49.335Z,99013.97
2023-03-07T16:04:36.066Z,99008.06
2023-03-07T16:07:03.195Z,99011.75
2023-03-07T16:09:29.611Z,99009.09
2023-03-07T16:11:56.079Z,99010.38
2023-03-07T16:14:32.720Z,99007.13
2023-03-07T16:17:01.792Z,99004.53
2023-03-07T16:19:28.269Z,99000.38
2023-03-07T16:21:54.769Z,99006.88
2023-03-07T16:24:21.157Z,99008.25
2023-03-07T16:26:47.978Z,99010.09
2023-03-07T16:29:16.303Z,99013.78
2023-03-07T16:31:43.242Z,99008.19
2023-03-07T16:34:18.069Z,99018.78
2023-03-07T16:36:44.571Z,99024.59
2023-03-07T16:39:12.013Z,99029.63
2023-03-07T16:41:39.526Z,99047.13
2023-03-07T16:44:05.889Z,99054.69
2023-03-07T16:46:34.572Z,99059.72
2023-03-07T16:49:00.948Z,99066.88
2023-03-07T16:51:28.176Z,99069.16
2023-03-07T16:53:56.627Z,99072.63
2023-03-07T16:56:29.768Z,99071.31
2023-03-07T16:58:56.999Z,99075.50
2023-03-07T17:01:23.438Z,99085.31
2023-03-07T17:03:49.881Z,99087.13
2023-03-07T17:06:17.245Z,99080.38
2023-03-07T17:08:44.636Z,99092.31
2023-03-07T17:11:17.188Z,99095.78
2023-03-07T17:13:43.711Z,99099.22
2023-03-07T17:16:14.057Z,99104.13
2023-03-07T17:18:40.663Z,99107.19
2023-03-07T17:21:07.036Z,99112.88
2023-03-07T17:23:33.435Z,99105.22
2023-03-07T17:25:59.834Z,99117.72
2023-03-07T17:28:26.672Z,99122.94
2023-03-07T17:30:53.070Z,99121.53
2023-03-07T17:33:19.598Z,99120.53
2023-03-07T17:35:46.117Z,99116.56
2023-03-07T17:38:12.555Z,99125.63
2023-03-07T17:40:39.022Z,99128.31
2023-03-07T17:43:05.453Z,99137.09
2023-03-07T17:45:31.874Z,99131.13
2023-03-07T17:47:58.260Z,99137.13
2023-03-07T17:50:25.590Z,99136.59
2023-03-07T17:52:53.711Z,99150.63
2023-03-07T17:55:21.615Z,99150.00
2023-03-07T17:57:48.035Z,99153.94
2023-03-07T18:00:14.684Z,99148.72
2023-03-07T18:02:44.089Z,99157.63
2023-03-07T18:05:12.768Z,99161.97
2023-03-07T18:07:40.367Z,99169.28
2023-03-07T18:10:08.881Z,99168.47
2023-03-07T18:12:35.707Z,99165.19
2023-03-07T18:15:02.127Z,99172.03
2023-03-07T18:17:38.486Z,99168.50
2023-03-07T18:20:14.412Z,99173.06
2023-03-07T18:22:40.960Z,99170.28
2023-03-07T18:25:09.984Z,99173.34
2023-03-07T18:27:36.375Z,99173.06
2023-03-07T18:30:03.889Z,99176.13
2023-03-07T18:32:31.148Z,99185.06
2023-03-07T18:34:57.662Z,99175.63
2023-03-07T18:37:24.070Z,99175.88
2023-03-07T18:39:50.451Z,99188.38
2023-03-07T18:42:16.846Z,99193.22
2023-03-07T18:44:43.285Z,99192.16
2023-03-07T18:47:10.485Z,99190.50
2023-03-07T18:49:38.341Z,99189.28
2023-03-07T18:52:04.929Z,99193.72
2023-03-07T18:54:31.411Z,99188.88
2023-03-07T18:56:57.780Z,99203.63
2023-03-07T18:59:24.273Z,99206.72
2023-03-07T19:01:50.755Z,99205.56
2023-03-07T19:04:17.662Z,99217.16
2023-03-07T19:06:48.446Z,99215.28
2023-03-07T19:09:17.109Z,99220.00
2023-03-07T19:11:43.632Z,99222.13
2023-03-07T19:14:10.446Z,99230.28
2023-03-07T19:16:36.901Z,99236.09
2023-03-07T19:19:03.690Z,99239.81
2023-03-07T19:21:30.767Z,99234.00
2023-03-07T19:23:58.623Z,99241.13
2023-03-07T19:26:25.884Z,99239.06
2023-03-07T19:28:54.013Z,99239.56
2023-03-07T19:31:27.497Z,99245.28
2023-03-07T19:33:54.053Z,99246.56
2023-03-07T19:36:22.708Z,99246.13
2023-03-07T19:38:50.589Z,99254.78
2023-03-07T19:41:19.577Z,99242.72
2023-03-07T19:43:45.972Z,99238.81
2023-03-07T19:46:13.694Z,99228.94
2023-03-07T19:48:40.917Z,99233.16
2023-03-07T19:51:15.317Z,99245.00
2023-03-07T19:53:42.583Z,99252.53
2023-03-07T19:56:13.704Z,99247.50
2023-03-07T19:58:40.206Z,99255.16
2023-03-07T20:01:11.323Z,99246.22
2023-03-07T20:03:38.311Z,99255.59
2023-03-07T20:06:05.671Z,99256.09
2023-03-07T20:08:33.505Z,99260.81
2023-03-07T20:11:14.336Z,99257.84
2023-03-07T20:13:42.011Z,99257.78
2023-03-07T20:16:10.458Z,99259.25
2023-03-07T20:18:37.682Z,99267.09
2023-03-07T20:21:11.336Z,99270.50
2023-03-07T20:23:38.007Z,99266.41
2023-03-07T20:26:06.947Z,99274.16
2023-03-07T20:28:33.918Z,99278.59
2023-03-07T20:31:01.460Z,99273.56
2023-03-07T20:33:28.419Z,99277.31
2023-03-07T20:36:04.712Z,99276.97
2023-03-07T20:38:32.707Z,99280.47
2023-03-07T20:41:01.308Z,99278.88
2023-03-07T20:43:27.825Z,99288.94
2023-03-07T20:45:54.304Z,99286.00
2023-03-07T20:48:20.799Z,99288.56
2023-03-07T20:50:47.222Z,99288.81
2023-03-07T20:53:13.589Z,99291.63
2023-03-07T20:55:39.988Z,99300.81
2023-03-07T20:58:08.007Z,99288.56
2023-03-07T21:00:34.402Z,99287.06
2023-03-07T21:03:05.991Z,99290.22
2023-03-07T21:05:33.132Z,99295.84
2023-03-07T21:07:59.585Z,99294.78
2023-03-07T21:10:25.972Z,99295.16
2023-03-07T21:12:53.155Z,99303.59
2023-03-07T21:15:19.560Z,99299.81
2023-03-07T21:17:45.984Z,99308.22
2023-03-07T21:20:12.560Z,99306.56
2023-03-07T21:22:40.494Z,99305.91
2023-03-07T21:25:07.400Z,99301.09
2023-03-07T21:27:33.781Z,99305.91
2023-03-07T21:30:00.192Z,99302.34
2023-03-07T21:32:27.832Z,99315.06
2023-03-07T21:34:54.240Z,99319.38
2023-03-07T21:37:20.671Z,99316.97
2023-03-07T21:39:47.054Z,99323.75
2023-03-07T21:42:13.559Z,99316.91
2023-03-07T21:44:39.939Z,99320.47
2023-03-07T21:47:06.327Z,99320.66
2023-03-07T21:49:33.883Z,99328.31
2023-03-07T21:52:00.331Z,99329.72
2023-03-07T21:54:26.802Z,99325.13
2023-03-07T21:56:53.181Z,99317.09
2023-03-07T21:59:19.614Z,99332.63
2023-03-07T22:01:46.087Z,99336.66
2023-03-07T22:04:12.535Z,99329.91
2023-03-07T22:06:38.962Z,99330.56
2023-03-07T22:09:05.607Z,99335.50
2023-03-07T22:11:32.043Z,99341.00
2023-03-07T22:13:58.436Z,99337.66
2023-03-07T22:16:24.943Z,99336.53
2023-03-07T22:18:52.933Z,99333.59
2023-03-07T22:21:21.027Z,99332.16
2023-03-07T22:23:47.426Z,99341.78
2023-03-07T22:26:13.820Z,99343.78
2023-03-07T22:28:40.944Z,99354.78
2023-03-07T22:31:09.903Z,99346.19
2023-03-07T22:33:36.287Z,99346.13
2023-03-07T22:36:05.155Z,99345.13
2023-03-07T22:38:32.231Z,99341.84
2023-03-07T22:41:24.301Z,99339.31
2023-03-07T22:43:52.321Z,99342.50
2023-03-07T22:46:18.755Z,99347.13
2023-03-07T22:48:45.130Z,99342.81
2023-03-07T22:51:13.977Z,99353.28
2023-03-07T22:53:40.622Z,99353.75
2023-03-07T22:56:15.583Z,99364.63
2023-03-07T22:58:42.083Z,99363.66
2023-03-07T23:01:16.697Z,99361.25
2023-03-07T23:03:43.392Z,99356.16
2023-03-07T23:06:09.820Z,99361.50
2023-03-07T23:08:36.184Z,99367.59
2023-03-07T23:11:08.859Z,99362.34
2023-03-07T23:13:35.313Z,99367.97
2023-03-07T23:16:08.444Z,99354.56
2023-03-07T23:18:36.508Z,99368.66
2023-03-07T23:21:06.770Z,99367.09
2023-03-07T23:23:33.266Z,99360.25
2023-03-07T23:25:59.682Z,99362.75
2023-03-07T23:28:26.106Z,99366.66
2023-03-07T23:30:52.752Z,99369.53
2023-03-07T23:33:19.491Z,99370.09
2023-03-07T23:35:46.013Z,99373.16
2023-03-07T23:38:12.866Z,99367.66
2023-03-07T23:40:39.652Z,99371.53
2023-03-07T23:43:06.612Z,99376.53
2023-03-07T23:45:33.252Z,99374.50
2023-03-07T23:47:59.649Z,99374.66
2023-03-07T23:50:26.010Z,99376.16
2023-03-07T23:52:52.438Z,99375.28
2023-03-07T23:55:18.946Z,99381.53
2023-03-07T23:57:46.429Z,99376.72
